createdAt,value
2023-01-13T00:04:41.734Z,9.03
2023-01-13T00:09:43.316Z,9.01
2023-01-13T00:14:44.878Z,9.16
2023-01-13T00:19:46.655Z,9.20
2023-01-13T00:24:48.168Z,9.16
2023-01-13T00:29:49.653Z,9.18
2023-01-13T00:34:51.233Z,9.21
2023-01-13T00:39:52.767Z,9.05
2023-01-13T00:44:54.277Z,9.19
2023-01-13T00:49:55.803Z,9.07
2023-01-13T00:54:57.435Z,9.08
2023-01-13T00:59:59.003Z,9.07
2023-01-13T01:05:01.025Z,9.16
2023-01-13T01:10:02.597Z,9.16
2023-01-13T01:15:06.216Z,9.09
2023-01-13T01:20:08.636Z,9.22
2023-01-13T01:25:10.109Z,9.12
2023-01-13T01:30:12.166Z,9.10
2023-01-13T01:35:13.649Z,9.12
2023-01-13T01:40:15.346Z,9.22
2023-01-13T01:45:21.926Z,9.15
2023-01-13T01:50:24.133Z,9.26
2023-01-13T01:55:32.151Z,9.11
2023-01-13T02:00:33.712Z,9.15
2023-01-13T02:05:35.523Z,9.16
2023-01-13T02:10:38.187Z,9.08
2023-01-13T02:15:53.603Z,9.10
2023-01-13T02:21:20.462Z,9.22
2023-01-13T02:26:43.077Z,9.14
2023-01-13T02:31:51.901Z,9.24
2023-01-13T02:37:15.630Z,9.31
2023-01-13T02:42:53.022Z,9.41
2023-01-13T02:47:56.873Z,9.43
2023-01-13T02:53:03.907Z,9.41
2023-01-13T02:58:10.023Z,9.38
2023-01-13T03:03:11.497Z,9.31
2023-01-13T03:08:39.608Z,9.38
2023-01-13T03:13:47.088Z,9.29
2023-01-13T03:19:00.447Z,9.40
2023-01-13T03:24:20.548Z,9.23
2023-01-13T03:29:45.995Z,9.18
2023-01-13T03:34:51.735Z,9.18
2023-01-13T03:39:59.704Z,9.16
2023-01-13T03:45:09.538Z,9.08
2023-01-13T03:50:32.766Z,9.17
2023-01-13T03:55:38.238Z,9.20
2023-01-13T04:00:57.551Z,9.21
2023-01-13T04:06:14.630Z,9.25
2023-01-13T04:11:26.794Z,9.05
2023-01-13T04:16:28.654Z,9.15
2023-01-13T04:21:30.807Z,9.15
2023-01-13T04:26:32.225Z,9.29
2023-01-13T04:31:33.696Z,9.18
2023-01-13T04:36:35.637Z,9.35
2023-01-13T04:41:55.497Z,9.21
2023-01-13T04:46:58.754Z,9.32
2023-01-13T04:52:03.743Z,9.30
2023-01-13T04:57:05.215Z,9.32
2023-01-13T05:02:08.991Z,9.31
2023-01-13T05:07:10.471Z,9.26
2023-01-13T05:12:31.500Z,9.39
2023-01-13T05:17:33.336Z,9.40
2023-01-13T05:22:53.112Z,9.45
2023-01-13T05:28:00.967Z,9.44
2023-01-13T05:33:02.457Z,9.38
2023-01-13T05:38:03.915Z,9.33
2023-01-13T05:43:22.323Z,9.32
2023-01-13T05:48:26.975Z,9.44
2023-01-13T05:53:29.268Z,9.28
2023-01-13T05:58:31.287Z,9.34
2023-01-13T06:03:32.749Z,9.54
2023-01-13T06:08:34.327Z,9.49
2023-01-13T06:13:35.850Z,9.52
2023-01-13T06:18:37.284Z,9.40
2023-01-13T06:23:38.887Z,9.37
2023-01-13T06:28:40.386Z,9.40
2023-01-13T06:33:54.746Z,9.35
2023-01-13T06:38:59.986Z,9.33
2023-01-13T06:44:01.484Z,9.38
2023-01-13T06:49:02.910Z,9.41
2023-01-13T06:54:04.661Z,9.41
2023-01-13T06:59:06.208Z,9.39
2023-01-13T07:04:07.680Z,9.42
2023-01-13T07:09:09.176Z,9.45
2023-01-13T07:14:29.444Z,9.45
2023-01-13T07:19:31.032Z,9.54
2023-01-13T07:24:32.454Z,9.56
2023-01-13T07:29:33.875Z,9.51
2023-01-13T07:34:35.596Z,9.50
2023-01-13T07:39:37.013Z,9.43
2023-01-13T07:44:38.434Z,9.50
2023-01-13T07:49:39.845Z,9.51
2023-01-13T07:54:41.448Z,9.41
2023-01-13T07:59:42.888Z,9.74
2023-01-13T08:04:44.290Z,9.84
2023-01-13T08:09:45.740Z,9.67
2023-01-13T08:14:47.219Z,9.69
2023-01-13T08:19:48.677Z,10.02
2023-01-13T08:24:50.089Z,10.11
2023-01-13T08:29:51.523Z,10.03
2023-01-13T08:34:52.983Z,10.15
2023-01-13T08:39:54.408Z,10.10
2023-01-13T08:44:56.046Z,10.00
2023-01-13T08:49:57.556Z,9.99
2023-01-13T08:54:59.018Z,10.30
2023-01-13T09:00:00.554Z,9.98
2023-01-13T09:05:03.933Z,10.23
2023-01-13T09:10:07.552Z,10.17
2023-01-13T09:15:09.661Z,10.42
2023-01-13T09:20:12.568Z,10.05
2023-01-13T09:25:13.995Z,10.18
2023-01-13T09:30:15.641Z,10.00
2023-01-13T09:35:17.517Z,9.86
2023-01-13T09:40:22.618Z,9.99
2023-01-13T09:45:36.763Z,10.05
2023-01-13T09:51:03.137Z,10.01
2023-01-13T09:56:05.499Z,10.10
2023-01-13T10:01:26.913Z,9.95
2023-01-13T10:06:38.817Z,9.96
2023-01-13T10:12:03.224Z,9.94
2023-01-13T10:17:04.575Z,10.10
2023-01-13T10:22:27.417Z,10.21
2023-01-13T10:27:34.716Z,10.46
2023-01-13T10:32:36.167Z,10.67
2023-01-13T10:37:37.729Z,10.83
2023-01-13T10:42:39.195Z,10.66
2023-01-13T10:47:41.107Z,10.90
2023-01-13T10:53:03.610Z,10.69
2023-01-13T10:58:18.545Z,10.73
2023-01-13T11:03:23.694Z,10.61
2023-01-13T11:08:28.458Z,10.73
2023-01-13T11:14:00.301Z,10.75
2023-01-13T11:19:13.980Z,10.85
2023-01-13T11:24:36.942Z,10.69
2023-01-13T11:29:44.284Z,10.95
2023-01-13T11:34:52.550Z,11.03
2023-01-13T11:40:03.929Z,11.12
2023-01-13T11:45:08.149Z,11.41
2023-01-13T11:50:41.718Z,11.06
2023-01-13T11:55:55.859Z,11.12
2023-01-13T12:01:31.090Z,10.95
2023-01-13T12:06:40.144Z,11.05
2023-01-13T12:12:01.530Z,11.03
2023-01-13T12:17:09.622Z,11.37
2023-01-13T12:22:14.909Z,11.01
2023-01-13T12:27:23.601Z,11.04
2023-01-13T12:32:34.472Z,11.02
2023-01-13T12:37:45.403Z,11.01
2023-01-13T12:43:22.598Z,11.06
2023-01-13T12:48:45.799Z,11.09
2023-01-13T12:53:47.381Z,11.25
2023-01-13T12:58:48.859Z,11.07
2023-01-13T13:04:09.504Z,10.99
2023-01-13T13:09:39.571Z,11.17
2023-01-13T13:14:41.030Z,11.26
2023-01-13T13:19:43.518Z,11.24
2023-01-13T13:24:50.809Z,11.22
2023-01-13T13:30:03.088Z,10.96
2023-01-13T13:35:32.353Z,10.86
2023-01-13T13:40:58.879Z,11.04
2023-01-13T13:46:19.298Z,11.06
2023-01-13T13:51:31.044Z,10.82
2023-01-13T13:56:40.071Z,10.92
2023-01-13T14:01:45.191Z,10.91
2023-01-13T14:06:55.194Z,11.05
2023-01-13T14:12:02.657Z,11.04
2023-01-13T14:17:04.762Z,11.07
2023-01-13T14:22:06.307Z,11.07
2023-01-13T14:27:16.921Z,11.19
2023-01-13T14:32:20.578Z,11.27
2023-01-13T14:37:28.110Z,11.25
2023-01-13T14:42:31.466Z,11.22
2023-01-13T14:47:34.018Z,11.13
2023-01-13T14:52:47.001Z,11.35
2023-01-13T14:57:49.509Z,10.58
2023-01-13T15:02:56.748Z,10.42
2023-01-13T15:08:11.268Z,10.06
2023-01-13T15:13:48.887Z,10.04
2023-01-13T15:18:56.026Z,10.25
2023-01-13T15:23:57.521Z,10.20
2023-01-13T15:29:00.714Z,10.30
2023-01-13T15:34:02.283Z,10.34
2023-01-13T15:39:04.141Z,10.26
2023-01-13T15:44:24.271Z,10.17
2023-01-13T15:49:35.070Z,10.22
2023-01-13T15:54:36.524Z,10.24
2023-01-13T15:59:38.234Z,10.02
2023-01-13T16:04:39.654Z,10.03
2023-01-13T16:09:41.093Z,10.05
2023-01-13T16:14:42.908Z,9.98
2023-01-13T16:19:45.477Z,9.97
2023-01-13T16:24:48.187Z,9.88
2023-01-13T16:29:51.871Z,9.93
2023-01-13T16:34:53.289Z,9.79
2023-01-13T16:39:54.906Z,9.83
2023-01-13T16:44:56.431Z,9.66
2023-01-13T16:49:57.885Z,9.66
2023-01-13T16:55:01.053Z,9.61
2023-01-13T17:00:04.090Z,9.45
2023-01-13T17:05:06.282Z,9.34
2023-01-13T17:10:08.974Z,9.23
2023-01-13T17:15:15.378Z,9.23
2023-01-13T17:20:17.016Z,9.33
2023-01-13T17:25:18.562Z,9.37
2023-01-13T17:30:21.375Z,9.45
2023-01-13T17:35:24.983Z,9.50
2023-01-13T17:40:26.617Z,9.50
2023-01-13T17:45:28.084Z,9.55
2023-01-13T17:50:31.122Z,9.49
2023-01-13T17:55:32.603Z,9.46
2023-01-13T18:00:34.607Z,9.43
2023-01-13T18:05:36.623Z,9.44
2023-01-13T18:10:38.060Z,9.47
2023-01-13T18:15:39.483Z,9.41
2023-01-13T18:20:59.594Z,9.30
2023-01-13T18:26:32.839Z,9.35
2023-01-13T18:31:34.434Z,9.35
2023-01-13T18:36:37.065Z,9.35
2023-01-13T18:41:57.102Z,9.38
2023-01-13T18:46:58.581Z,9.33
2023-01-13T18:52:00.075Z,9.24
2023-01-13T18:57:02.834Z,9.19
2023-01-13T19:02:09.190Z,9.15
2023-01-13T19:07:22.020Z,9.06
2023-01-13T19:12:26.246Z,8.89
2023-01-13T19:17:32.477Z,8.75
2023-01-13T19:22:34.884Z,8.81
2023-01-13T19:27:36.433Z,8.80
2023-01-13T19:32:37.855Z,8.87
2023-01-13T19:37:40.339Z,8.88
2023-01-13T19:43:03.929Z,8.66
2023-01-13T19:48:07.259Z,8.72
2023-01-13T19:53:15.880Z,8.73
2023-01-13T19:58:20.622Z,8.53
2023-01-13T20:03:25.048Z,8.50
2023-01-13T20:08:26.457Z,8.64
2023-01-13T20:13:27.917Z,8.46
2023-01-13T20:18:35.629Z,8.38
2023-01-13T20:23:37.118Z,8.14
2023-01-13T20:28:39.500Z,8.04
2023-01-13T20:33:41.734Z,8.07
2023-01-13T20:38:43.164Z,8.00
2023-01-13T20:43:44.596Z,7.87
2023-01-13T20:48:46.074Z,7.69
2023-01-13T20:53:47.502Z,7.57
2023-01-13T20:58:49.091Z,7.58
2023-01-13T21:03:50.661Z,7.56
2023-01-13T21:08:54.198Z,7.61
2023-01-13T21:14:14.380Z,7.88
2023-01-13T21:19:15.948Z,7.86
2023-01-13T21:24:17.515Z,7.70
2023-01-13T21:29:19.044Z,7.90
2023-01-13T21:34:20.516Z,7.83
2023-01-13T21:39:21.951Z,7.90
2023-01-13T21:44:41.762Z,7.94
2023-01-13T21:49:44.523Z,7.76
2023-01-13T21:55:04.554Z,7.75
2023-01-13T22:00:06.782Z,7.87
2023-01-13T22:05:10.193Z,7.74
2023-01-13T22:10:14.686Z,7.44
2023-01-13T22:15:16.617Z,7.28
2023-01-13T22:20:19.321Z,7.45
2023-01-13T22:25:20.748Z,7.32
2023-01-13T22:30:22.335Z,7.31
2023-01-13T22:35:23.866Z,7.43
2023-01-13T22:40:25.502Z,7.51
2023-01-13T22:45:26.914Z,7.42
2023-01-13T22:50:28.380Z,7.50
2023-01-13T22:55:29.800Z,7.50
2023-01-13T23:00:31.853Z,7.67
2023-01-13T23:05:33.322Z,7.67
2023-01-13T23:10:34.996Z,7.59
2023-01-13T23:15:36.484Z,7.52
2023-01-13T23:20:37.915Z,7.54
2023-01-13T23:25:39.331Z,7.31
2023-01-13T23:30:40.817Z,7.54
2023-01-13T23:35:42.264Z,7.43
2023-01-13T23:40:45.333Z,7.41
2023-01-13T23:45:46.900Z,7.21
2023-01-13T23:50:58.952Z,7.22
2023-01-13T23:56:01.992Z,7.38
